Tiempo atmosférico en la estación meteorológica de Morales del Toro, Zamora (710 m.)



Fecha
DESCASC
Temp. máxima en grados centígrados (hora)
DESCASC
Temp. mínima en grados centígrados (hora)
DESCASC
Temp. media en grados centígrados
DESCASC
Racha de viento máxima en m/sg (hora)
DESCASC
Velocidad máxima media en intervalos de 10 minutos(hora)
DESCASC
Precipitaciones diarias en mm
DESCASC
Precipitaciones de 00:00 a 06:00 en mm
DESCASC
Precipitaciones de 06:00 a 12:00 en mm
DESCASC
Precipitaciones de 12:00 a 18:00 en mm
DESCASC
Precipitaciones de 18:00 a 24:00 en mm
DESCASC
13-10-2019 24.6 (16:50) 11.9 (08:40) 18.3 11.94 (17:40) 9.17 (19:20) 0 0 0 0 0
12-10-2019 28.6 (16:30) 16.6 (04:30) 22.6 15.56 (16:50) 11.11 (16:20) 0 0 0 0 0
10-10-2019 26.8 (17:30) 6.5 (00:00) 16.6 8.61 (00:20) 6.39 (00:20) 0 0 0 0 0
09-10-2019 24.5 (17:50) 11.7 (00:00) 18.1 9.17 (23:10) 6.67 (09:10) 0 0 0 0 0
08-10-2019 29.5 (17:10) 9.3 (00:00) 19.4 9.44 (16:50) 6.67 (18:40) 0 0 0 0 0
07-10-2019 30.6 (18:30) 8.8 (00:00) 19.7 6.67 (00:20) 5.28 (00:10) 0 0 0 0 0
06-10-2019 26.4 (17:50) 7.7 (00:00) 17 6.11 (15:50) 4.72 (23:59) 0 0 0 0 0
05-10-2019 25.9 (18:00) 7 (08:10) 16.4 7.22 (17:30) 5 (19:20) 0 0 0 0 0
04-10-2019 26 (18:00) 8.8 (00:00) 17.4 10.83 (16:20) 4.17 (15:50) 0 0 0 0 0
03-10-2019 26.9 (17:40) 6.2 (00:00) 16.5 7.78 (15:00) 5 (14:20) 0 0 0 0 0
02-10-2019 23.7 (17:20) 6.7 (00:00) 15.2 8.06 (02:10) 5.56 (02:10) 0 0 0 0 0
01-10-2019 24.7 (17:10) 12.9 (00:00) 18.8 13.61 (15:00) 8.89 (15:00) 0 0 0 0 0
30-09-2019 29.8 (17:30) 9.7 (00:00) 19.7 7.5 (18:10) 5 (18:40) 0 0 0 0 0
29-09-2019 28.8 (17:10) 6.6 (00:00) 17.7 10.28 (18:10) 7.22 (17:40) 0 0 0 0 0
28-09-2019 28.6 (19:30) 6.6 (00:00) 17.6 6.39 (13:50) 3.33 (05:30) 0 0 0 0 0
27-09-2019 26.4 (17:20) 6.5 (00:00) 16.4 11.67 (18:00) 6.67 (17:40) 0 0 0 0 0
26-09-2019 27.6 (17:30) 8.5 (00:00) 18.1 10 (17:10) 5.83 (16:00) 0 0 0 0 0
25-09-2019 23.6 (17:30) 7.9 (00:00) 15.8 7.22 (17:20) 4.72 (02:00) 0 0 0 0 0
24-09-2019 24.7 (18:00) 11.1 (00:00) 17.9 15.56 (17:20) 11.11 (17:40) 0 0 0 0 0
23-09-2019 24 (18:10) 7.2 (00:00) 15.6 10 (14:20) 6.11 (19:20) 0 0 0 0 0
22-09-2019 21.2 (17:00) 10.5 (00:00) 15.9 11.11 (01:30) 7.5 (01:20) 3 3 0 0 0
21-09-2019 21.1 (16:40) 15.5 (00:00) 18.3 13.61 (17:30) 9.17 (17:30) 3.8 0 0.4 2 1.4
20-09-2019 29.4 (17:00) 15.2 (00:00) 22.3 11.94 (18:50) 7.22 (18:50) 0.4 0 0 0 0.4
19-09-2019 29.4 (17:20) 12.8 (00:00) 21.1 6.39 (15:00) 3.89 (23:40) 0 0 0 0 0
18-09-2019 27.7 (17:30) 11.6 (00:00) 19.7 10.56 (01:30) 7.22 (01:30) 0 0 0 0 0
17-09-2019 30 (15:50) 12.3 (00:00) 21.2 15 (21:40) 9.44 (21:50) 1.6 0 0 0 1.6
16-09-2019 28.4 (15:50) 13.2 (00:00) 20.8 10 (18:10) 6.67 (18:30) 0 0 0 0 0
15-09-2019 23.5 (18:10) 14.1 (00:00) 18.8 9.72 (14:30) 7.22 (20:10) 7.4 0 7.4 0 0

Gráficas

Temp. máximas Temp. mínimas Temp. medias Precipitaciones Rachas de viento máximas Velocidades máximas media en intervalos de 10 minutos

Datos horarios

Fecha y hora oficial Temperatura (ºC) Velocidad del viento (km/h) Dirección del viento Racha (km/h) Dirección de racha Precipitación (mm) Presión (hPa) Tendencia (hPa) Humedad (%)
2019-10-14 23:00:00 6.8 18 Sudoeste 37 Oeste 0 -- -- 88
2019-10-14 22:00:00 7.1 23 Sudoeste 37 Oeste 0 -- -- 86
2019-10-14 21:00:00 7.5 28 Sudoeste 58 Oeste 0.2 -- -- 84
2019-10-14 20:00:00 8 22 Oeste 36 Oeste 0.8 -- -- 88
2019-10-14 19:00:00 10.4 25 Oeste 40 Oeste 0 -- -- 78
2019-10-14 18:00:00 10.6 27 Oeste 56 Sudoeste 0.2 -- -- 77
2019-10-14 17:00:00 10.6 20 Sudoeste 46 Sudoeste 0.2 -- -- 82
2019-10-14 16:00:00 12.5 32 Sudoeste 45 Sudoeste 0 -- -- 77
2019-10-14 15:00:00 12.2 28 Sudoeste 57 Sudoeste 1 -- -- 86
2019-10-14 14:00:00 12.5 31 Sudoeste 45 Sudoeste 0 -- -- 76
2019-10-14 13:00:00 15 22 Sudoeste 42 Oeste 0 -- -- 64
2019-10-14 12:00:00 13.9 32 Sudoeste 46 Sudoeste 0 -- -- 69
2019-10-14 11:00:00 11.7 18 Sudoeste 26 Sudoeste 0.4 -- -- 88
2019-10-14 10:00:00 10.4 22 Oeste 53 Sudoeste 1 -- -- 91
2019-10-14 09:00:00 14.3 29 Sudoeste 47 Sur 0.2 -- -- 80
2019-10-14 08:00:00 14.7 12 Sudoeste 21 Sudoeste 0 -- -- 70
2019-10-14 07:00:00 15.1 7 Sudoeste 12 Sudoeste 0 -- -- 67
2019-10-14 06:00:00 14.8 4 Sudoeste 18 Sur 0 -- -- 62
2019-10-14 05:00:00 14.7 9 Sudeste 14 Sur 0 -- -- 60
2019-10-14 04:00:00 14.3 10 Sudeste 15 Sudeste 0 -- -- 60
2019-10-14 03:00:00 14.1 9 Sudeste 15 Sudeste 0 -- -- 60
2019-10-14 02:00:00 13.9 10 Sudeste 13 Sudeste 0 -- -- 63
2019-10-14 01:00:00 13.6 10 Sudeste 16 Este 0 -- -- 65
2019-10-14 00:00:00 14 9 Este 16 Sur 0 -- -- 63
2019-10-13 23:00:00 15 9 Sudeste 16 Sur 0 -- -- 63
2019-10-13 22:00:00 15.5 12 Sur 15 Sur 0 -- -- 61
2019-10-13 21:00:00 17 14 Sudoeste 32 Sudoeste 0 -- -- 55
2019-10-13 20:00:00 18.9 19 Sudoeste 43 Sudoeste 0 -- -- 46
2019-10-13 19:00:00 21.7 26 Sudoeste 41 Sudoeste 0 -- -- 40
2019-10-13 18:00:00 23.7 23 Sudoeste 43 Sudoeste 0 -- -- 37
2019-10-13 17:00:00 24.4 22 Sudoeste 40 Sudoeste 0 -- -- 36
2019-10-13 16:00:00 23.7 18 Sudoeste 32 Sudoeste 0 -- -- 41
2019-10-13 15:00:00 23 17 Sudoeste 35 Sudoeste 0 -- -- 42
2019-10-13 14:00:00 21.3 23 Sudoeste 36 Sudoeste 0 -- -- 48
2019-10-13 13:00:00 20.1 21 Sudoeste 33 Sudoeste 0 -- -- 51
2019-10-13 12:00:00 17.9 19 Sudoeste 33 Sur 0 -- -- 60
2019-10-13 11:00:00 15.5 9 Sudoeste 17 Sudoeste 0 -- -- 73
2019-10-13 10:00:00 13.9 4 Sudeste 8 Noroeste 0 -- -- 83
2019-10-13 09:00:00 12 3 Noroeste 17 Sudoeste 0 -- -- 89
2019-10-13 08:00:00 12.5 12 Oeste 18 Oeste 0 -- -- 88
2019-10-13 07:00:00 13.3 7 Sur 16 Sur 0 -- -- 86
2019-10-13 06:00:00 14.6 14 Sur 23 Sur 0 -- -- 83
2019-10-13 05:00:00 14.7 13 Sur 17 Sur 0 -- -- 83
2019-10-13 04:00:00 15 11 Sur 14 Sur 0 -- -- 72
2019-10-13 03:00:00 15.7 9 Sur 15 Sur 0 -- -- 65
2019-10-13 02:00:00 17.5 14 Sur 30 Sur 0 -- -- 58
2019-10-13 01:00:00 19.2 21 Sur 33 Sur 0 -- -- 54
2019-10-13 00:00:00 20.1 22 Sur 32 Sur 0 -- -- 44
2019-10-12 23:00:00 20 19 Sur 28 Sur 0 -- -- 42
2019-10-12 22:00:00 20.9 18 Sur 26 Sur 0 -- -- 40
2019-10-12 21:00:00 22.1 15 Sur 26 Sur 0 -- -- 38
2019-10-12 20:00:00 23.5 18 Sur 40 Sur 0 -- -- 36
2019-10-12 19:00:00 26 34 Sur 53 Sur 0 -- -- 31
2019-10-12 18:00:00 27.4 37 Sudoeste 52 Sudoeste 0 -- -- 28
2019-10-12 17:00:00 28.4 36 Sudoeste 56 Sudoeste 0 -- -- 28
2019-10-12 16:00:00 27.6 34 Sudoeste 52 Sudoeste 0 -- -- 30
2019-10-12 15:00:00 25.4 31 Sudoeste 49 Sur 0 -- -- 35
2019-10-12 14:00:00 26.2 32 Sudoeste 49 Sudoeste 0 -- -- 34
2019-10-12 13:00:00 24.2 21 Sur 32 Sur 0 -- -- 40
2019-10-12 12:00:00 22.8 10 Sur 15 Sudeste 0 -- -- 47
2019-10-12 11:00:00 20.6 7 Sudeste 15 Sudeste 0 -- -- 56
2019-10-12 10:00:00 17.5 5 Este 14 Este 0 -- -- 64
2019-10-12 09:00:00 18 8 Sur 17 Sur 0 -- -- 62
2019-10-12 08:00:00 17.2 7 Sur 8 Sur 0 -- -- 64
2019-10-12 07:00:00 17.1 6 Sur 11 Sur 0 -- -- 63
2019-10-12 06:00:00 17.2 9 Sudeste 12 Sudeste 0 -- -- 63
2019-10-12 05:00:00 16.8 10 Sudeste 14 Sudeste 0 -- -- 66
2019-10-12 04:00:00 16.9 10 Sudeste 14 Sudeste 0 -- -- 66
2019-10-12 03:00:00 17.4 8 Este 12 Este 0 -- -- 63
2019-10-12 02:00:00 17.6 7 Sudeste 13 Este 0 -- -- 62
2019-10-12 01:00:00 17.7 8 Sudeste 16 Sudoeste 0 -- -- 62
2019-10-12 00:00:00 19.1 12 Sudoeste 21 Sudoeste 0 -- -- 59
2019-10-11 23:00:00 19.6 8 Sur 14 Sudoeste 0 -- -- 57
2019-10-11 22:00:00 20.9 13 Sudoeste 30 Sudoeste 0 -- -- 53
2019-10-11 21:00:00 22.5 18 Sudoeste 32 Sudoeste 0 -- -- 46
2019-10-11 20:00:00 24 21 Sudoeste 36 Sudoeste 0 -- -- 41
2019-10-11 19:00:00 26.2 28 Sudoeste 41 Sudoeste 0 -- -- 36
2019-10-11 18:00:00 27.8 14 Sudoeste 25 Oeste 0 -- -- 35
2019-10-11 17:00:00 28.9 7 Sudoeste 22 Noroeste 0 -- -- 32
2019-10-11 16:00:00 28.8 10 Sudoeste 20 Oeste 0 -- -- 32
2019-10-11 15:00:00 27.9 8 Sur 18 Sudoeste 0 -- -- 32
2019-10-11 14:00:00 26.4 6 Sudoeste 14 Sudoeste 0 -- -- 33
2019-10-11 13:00:00 23.3 4 Sur 12 Este 0 -- -- 38
2019-10-11 12:00:00 19.5 5 Este 9 Sudeste 0 -- -- 45
2019-10-11 11:00:00 15.4 3 Este 6 Este 0 -- -- 53
2019-10-11 10:00:00 11.4 0 Calma 4 Sudeste 0 -- -- 61
2019-10-11 09:00:00 7.1 3 Nordeste 5 Nordeste 0 -- -- 71
2019-10-11 08:00:00 6.9 4 Nordeste 6 Nordeste 0 -- -- 73
2019-10-11 07:00:00 8.4 7 Norte 9 Norte 0 -- -- 68
2019-10-11 06:00:00 7.9 4 Nordeste 7 Nordeste 0 -- -- 67
2019-10-11 05:00:00 8.4 3 Nordeste 6 Este 0 -- -- 65
2019-10-11 04:00:00 9.7 0 Calma 8 Nordeste 0 -- -- 61
2019-10-11 03:00:00 10.4 4 Nordeste 11 Nordeste 0 -- -- 61
2019-10-11 02:00:00 11.1 9 Nordeste 14 Norte 0 -- -- 58
2019-10-11 01:00:00 13.2 10 Nordeste 12 Nordeste 0 -- -- 51
2019-10-11 00:00:00 12.9 10 Nordeste 15 Norte 0 -- -- 52
2019-10-10 23:00:00 14.6 14 Norte 16 Norte 0 -- -- 49
2019-10-10 22:00:00 15.4 12 Norte 14 Norte 0 -- -- 46
2019-10-10 21:00:00 18.2 10 Nordeste 11 Norte 0 -- -- 41
2019-10-10 20:00:00 21.7 3 Nordeste 5 Este 0 -- -- 36
2019-10-10 19:00:00 25.9 0 Calma 12 Este 0 -- -- 30
2019-10-10 18:00:00 26.8 4 Este 13 Nordeste 0 -- -- 29
2019-10-10 17:00:00 26.4 3 Norte 15 Este 0 -- -- 30
2019-10-10 16:00:00 25.2 8 Nordeste 22 Este 0 -- -- 31
2019-10-10 15:00:00 23.4 12 Nordeste 25 Nordeste 0 -- -- 34
2019-10-10 14:00:00 22.2 13 Nordeste 25 Nordeste 0 -- -- 39
2019-10-10 13:00:00 20.2 17 Este 28 Este 0 -- -- 45
2019-10-10 12:00:00 17.2 13 Nordeste 21 Este 0 -- -- 54
2019-10-10 11:00:00 14.4 14 Nordeste 23 Nordeste 0 -- -- 62
2019-10-10 10:00:00 11.1 9 Nordeste 22 Este 0 -- -- 73
2019-10-10 09:00:00 7.2 0 Calma 6 Nordeste 0 -- -- 87
2019-10-10 08:00:00 6.7 0 Calma 9 Norte 0 -- -- 86
2019-10-10 07:00:00 6.7 5 Nordeste 8 Nordeste 0 -- -- 86
2019-10-10 06:00:00 7.1 0 Calma 12 Noroeste 0 -- -- 82
2019-10-10 05:00:00 8.2 2 Noroeste 22 Nordeste 0 -- -- 79
2019-10-10 04:00:00 9.1 4 Nordeste 10 Nordeste 0 -- -- 76
2019-10-10 03:00:00 10.1 7 Este 23 Nordeste 0 -- -- 72
2019-10-10 02:00:00 10.3 15 Nordeste 31 Nordeste 0 -- -- 71
2019-10-10 01:00:00 11.4 17 Nordeste 31 Nordeste 0 -- -- 68
2019-10-10 00:00:00 12.6 22 Nordeste 33 Nordeste 0 -- -- 66
2019-10-09 23:00:00 13.9 21 Nordeste 31 Nordeste 0 -- -- 61
2019-10-09 22:00:00 13.6 10 Norte 12 Nordeste 0 -- -- 55
2019-10-09 21:00:00 15.7 10 Nordeste 20 Norte 0 -- -- 51
2019-10-09 20:00:00 19.2 14 Norte 18 Norte 0 -- -- 42
2019-10-09 19:00:00 22.5 10 Norte 19 Norte 0 -- -- 32
2019-10-09 18:00:00 23.8 7 Norte 16 Norte 0 -- -- 30
2019-10-09 17:00:00 23.6 9 Norte 17 Norte 0 -- -- 32
2019-10-09 16:00:00 22.8 9 Norte 20 Noroeste 0 -- -- 35
2019-10-09 15:00:00 21.9 8 Norte 23 Noroeste 0 -- -- 32
2019-10-09 14:00:00 20.6 8 Noroeste 19 Noroeste 0 -- -- 39
2019-10-09 13:00:00 19.4 8 Noroeste 16 Noroeste 0 -- -- 44
2019-10-09 12:00:00 17 9 Norte 21 Norte 0 -- -- 58
2019-10-09 11:00:00 15.6 14 Norte 22 Nordeste 0 -- -- 60
2019-10-09 10:00:00 14 13 Norte 32 Noroeste 0 -- -- 64
2019-10-09 09:00:00 12.3 21 Norte 33 Norte 0 -- -- 69
2019-10-09 08:00:00 13.1 9 Norte 23 Norte 0 -- -- 71
2019-10-09 07:00:00 13.1 10 Norte 32 Norte 0 -- -- 74
2019-10-09 06:00:00 15 23 Norte 33 Norte 0 -- -- 72
2019-10-09 05:00:00 14.1 6 Noroeste 13 Noroeste 0 -- -- 80
2019-10-09 04:00:00 14 4 Oeste 6 Oeste 0 -- -- 82
2019-10-09 03:00:00 14.8 7 Noroeste 14 Noroeste 0 -- -- 79
2019-10-09 02:00:00 15.5 10 Oeste 13 Noroeste 0 -- -- 76
2019-10-09 01:00:00 16.1 7 Noroeste 11 Noroeste 0 -- -- 69
2019-10-09 00:00:00 17.9 6 Oeste 13 Noroeste 0 -- -- 64
2019-10-08 23:00:00 19.8 11 Noroeste 19 Noroeste 0 -- -- 59
2019-10-08 22:00:00 20 8 Noroeste 23 Oeste 0 -- -- 59
2019-10-08 21:00:00 21.8 10 Oeste 22 Oeste 0 -- -- 53
2019-10-08 20:00:00 24 16 Oeste 30 Oeste 0 -- -- 46
2019-10-08 19:00:00 27.4 21 Oeste 33 Oeste 0 -- -- 38
2019-10-08 18:00:00 29.2 17 Oeste 34 Oeste 0 -- -- 35
2019-10-08 17:00:00 29.2 20 Oeste 34 Sudoeste 0 -- -- 37
2019-10-08 16:00:00 28.9 17 Oeste 26 Sudoeste 0 -- -- 37
2019-10-08 15:00:00 27.3 17 Sudoeste 29 Sudoeste 0 -- -- 37
2019-10-08 14:00:00 26.2 17 Oeste 28 Oeste 0 -- -- 36
2019-10-08 13:00:00 23.9 6 Sudoeste 13 Sudoeste 0 -- -- 37
2019-10-08 12:00:00 20.3 4 Sur 10 Sur 0 -- -- 42
2019-10-08 11:00:00 16.9 7 Sudeste 14 Sudeste 0 -- -- 49
2019-10-08 10:00:00 14.2 10 Este 14 Este 0 -- -- 57
2019-10-08 09:00:00 9.7 5 Este 8 Nordeste 0 -- -- 69
2019-10-08 08:00:00 9.5 0 Calma 8 Nordeste 0 -- -- 69
2019-10-08 07:00:00 10.2 3 Norte 13 Este 0 -- -- 65
2019-10-08 06:00:00 10.9 9 Este 12 Este 0 -- -- 65
2019-10-08 05:00:00 10.8 3 Nordeste 9 Nordeste 0 -- -- 62
2019-10-08 04:00:00 10.9 8 Nordeste 11 Este 0 -- -- 60
2019-10-08 03:00:00 13.9 7 Nordeste 14 Este 0 -- -- 51
2019-10-08 02:00:00 13.4 6 Este 9 Este 0 -- -- 51
2019-10-08 01:00:00 13.9 8 Nordeste 10 Nordeste 0 -- -- 51
2019-10-08 00:00:00 14.9 8 Nordeste 14 Nordeste 0 -- -- 46
2019-10-07 23:00:00 15.9 11 Nordeste 13 Nordeste 0 -- -- 45
2019-10-07 22:00:00 17.7 10 Nordeste 12 Nordeste 0 -- -- 40
2019-10-07 21:00:00 20.5 5 Sudeste 9 Sudeste 0 -- -- 36
2019-10-07 20:00:00 23.2 8 Sudeste 9 Sudeste 0 -- -- 30
2019-10-07 19:00:00 29.6 0 Calma 7 Este 0 -- -- 22
2019-10-07 18:00:00 29.7 3 Sudeste 15 Oeste 0 -- -- 22
2019-10-07 17:00:00 28.1 5 Sur 19 Oeste 0 -- -- 23
2019-10-07 16:00:00 27.9 3 Sudeste 15 Oeste 0 -- -- 24
2019-10-07 15:00:00 25.6 5 Oeste 16 Sur 0 -- -- 28
2019-10-07 14:00:00 24.2 5 Este 13 Sudeste 0 -- -- 34
2019-10-07 13:00:00 21.8 7 Sudeste 14 Sudeste 0 -- -- 41
2019-10-07 12:00:00 19.2 5 Sudeste 11 Sur 0 -- -- 48
2019-10-07 11:00:00 15.9 3 Oeste 8 Oeste 0 -- -- 63
2019-10-07 10:00:00 12 3 Oeste 5 Noroeste 0 -- -- 82
2019-10-07 09:00:00 9.5 3 Nordeste 10 Norte 0 -- -- 91
2019-10-07 08:00:00 9.3 8 Norte 13 Nordeste 0 -- -- 92
2019-10-07 07:00:00 9.2 10 Nordeste 12 Nordeste 0 -- -- 89
2019-10-07 06:00:00 9.4 9 Norte 13 Norte 0 -- -- 88
2019-10-07 05:00:00 10 8 Nordeste 11 Norte 0 -- -- 85
2019-10-07 04:00:00 10 9 Norte 13 Nordeste 0 -- -- 81
2019-10-07 03:00:00 11.3 9 Norte 11 Nordeste 0 -- -- 76
2019-10-07 02:00:00 12.2 2 Oeste 15 Norte 0 -- -- 72
2019-10-07 01:00:00 13.5 12 Nordeste 24 Noroeste 0 -- -- 64
2019-10-07 00:00:00 15.7 17 Noroeste 19 Noroeste 0 -- -- 51
2019-10-06 23:00:00 16.3 8 Noroeste 12 Oeste 0 -- -- 47
2019-10-06 22:00:00 18 6 Oeste 18 Oeste 0 -- -- 45
2019-10-06 21:00:00 19.3 7 Oeste 13 Noroeste 0 -- -- 45
2019-10-06 20:00:00 21.5 5 Oeste 15 Oeste 0 -- -- 40
2019-10-06 19:00:00 25.3 10 Oeste 20 Oeste 0 -- -- 33
2019-10-06 18:00:00 26.3 10 Oeste 19 Oeste 0 -- -- 31
2019-10-06 17:00:00 25.9 6 Noroeste 19 Sudoeste 0 -- -- 33
2019-10-06 16:00:00 24.7 7 Oeste 22 Sudoeste 0 -- -- 38
2019-10-06 15:00:00 23.7 6 Sudoeste 18 Sur 0 -- -- 41
2019-10-06 14:00:00 22.9 4 Sur 19 Nordeste 0 -- -- 44
2019-10-06 13:00:00 20.5 12 Este 20 Este 0 -- -- 50
2019-10-06 12:00:00 17.6 9 Nordeste 14 Nordeste 0 -- -- 59
2019-10-06 11:00:00 13.7 9 Nordeste 13 Nordeste 0 -- -- 72
2019-10-06 10:00:00 10.7 8 Nordeste 12 Nordeste 0 -- -- 83
2019-10-06 09:00:00 7.8 7 Noroeste 10 Oeste 0 -- -- 90
2019-10-06 08:00:00 8.1 5 Oeste 13 Oeste 0 -- -- 88
2019-10-06 07:00:00 9.4 6 Oeste 13 Oeste 0 -- -- 86
2019-10-06 06:00:00 9.2 6 Oeste 9 Oeste 0 -- -- 84
2019-10-06 05:00:00 10.2 7 Oeste 9 Oeste 0 -- -- 83
2019-10-06 04:00:00 11.4 9 Oeste 12 Oeste 0 -- -- 79
2019-10-06 03:00:00 11.7 7 Noroeste 12 Oeste 0 -- -- 72
2019-10-06 02:00:00 13.5 14 Oeste 17 Oeste 0 -- -- 68
2019-10-06 01:00:00 12.8 6 Oeste 9 Oeste 0 -- -- 66
2019-10-06 00:00:00 13.9 6 Noroeste 15 Oeste 0 -- -- 60
2019-10-05 23:00:00 15.5 3 Noroeste 12 Oeste 0 -- -- 55
2019-10-05 22:00:00 15.9 4 Oeste 22 Oeste 0 -- -- 52
2019-10-05 21:00:00 18.4 14 Oeste 19 Oeste 0 -- -- 47
2019-10-05 20:00:00 20.7 11 Oeste 25 Sudoeste 0 -- -- 43
2019-10-05 19:00:00 25.7 11 Oeste 21 Oeste 0 -- -- 38
2019-10-05 18:00:00 25.9 14 Oeste 26 Oeste 0 -- -- 38
2019-10-05 17:00:00 25.4 14 Oeste 23 Oeste 0 -- -- 38
2019-10-05 16:00:00 24.6 13 Oeste 25 Sudoeste 0 -- -- 44
2019-10-05 15:00:00 23.9 11 Oeste 22 Oeste 0 -- -- 47
2019-10-05 14:00:00 23 9 Sudoeste 19 Oeste 0 -- -- 50
2019-10-05 13:00:00 21.3 9 Oeste 17 Oeste 0 -- -- 53
2019-10-05 12:00:00 17.9 6 Oeste 12 Oeste 0 -- -- 63
2019-10-05 11:00:00 15.3 4 Sudeste 9 Este 0 -- -- 70
2019-10-05 10:00:00 11.4 6 Nordeste 8 Nordeste 0 -- -- 83
2019-10-05 09:00:00 7.5 6 Noroeste 9 Noroeste 0 -- -- 91
2019-10-05 08:00:00 7.1 3 Nordeste 6 Nordeste 0 -- -- 89
2019-10-05 07:00:00 7.7 5 Nordeste 8 Nordeste 0 -- -- 88
2019-10-05 06:00:00 8.3 6 Nordeste 9 Nordeste 0 -- -- 87
2019-10-05 05:00:00 8.9 2 Norte 7 Nordeste 0 -- -- 82
2019-10-05 04:00:00 9.4 7 Nordeste 10 Nordeste 0 -- -- 81
2019-10-05 03:00:00 11.2 4 Norte 12 Norte 0 -- -- 75
2019-10-05 02:00:00 12.2 3 Norte 5 Norte 0 -- -- 74
2019-10-05 01:00:00 13.3 4 Noroeste 6 Noroeste 0 -- -- 72
2019-10-05 00:00:00 14.6 3 Noroeste 11 Noroeste 0 -- -- 67
2019-10-04 23:00:00 16 8 Noroeste 11 Oeste 0 -- -- 61
2019-10-04 22:00:00 18.1 8 Oeste 14 Oeste 0 -- -- 55
2019-10-04 21:00:00 19.1 9 Oeste 15 Oeste 0 -- -- 52
2019-10-04 20:00:00 21.3 12 Oeste 22 Oeste 0 -- -- 48
2019-10-04 19:00:00 25 14 Oeste 27 Sudoeste 0 -- -- 42
2019-10-04 18:00:00 26 11 Sudoeste 21 Sudoeste 0 -- -- 40
2019-10-04 17:00:00 25.6 12 Sudoeste 39 Sudoeste 0 -- -- 44
2019-10-04 16:00:00 24.3 14 Sudoeste 26 Sudoeste 0 -- -- 48
2019-10-04 15:00:00 21.4 12 Oeste 21 Sudoeste 0 -- -- 59
2019-10-04 14:00:00 21.6 9 Oeste 18 Sudoeste 0 -- -- 62
2019-10-04 13:00:00 19.8 8 Sur 14 Sudeste 0 -- -- 67
2019-10-04 12:00:00 16.3 5 Oeste 15 Oeste 0 -- -- 83
2019-10-04 11:00:00 14.3 13 Sudoeste 18 Oeste 0 -- -- 90
2019-10-04 10:00:00 12.1 2 Sur 6 Sur 0 -- -- 87
2019-10-04 09:00:00 8.8 5 Nordeste 8 Nordeste 0 -- -- 86
2019-10-04 08:00:00 9.2 0 Calma 5 Nordeste 0 -- -- 89
2019-10-04 07:00:00 9.9 4 Nordeste 6 Nordeste 0 -- -- 87
2019-10-04 06:00:00 10.7 0 Calma 6 Noroeste 0 -- -- 88
2019-10-04 05:00:00 11 3 Norte 9 Oeste 0 -- -- 80
2019-10-04 04:00:00 11.9 6 Oeste 9 Oeste 0 -- -- 80
2019-10-04 03:00:00 13.3 5 Sudoeste 9 Sudoeste 0 -- -- 71
2019-10-04 02:00:00 13.5 3 Sur 9 Oeste 0 -- -- 70
2019-10-04 01:00:00 14.1 7 Noroeste 8 Noroeste 0 -- -- 67
2019-10-04 00:00:00 15.4 6 Sudoeste 13 Noroeste 0 -- -- 59
2019-10-03 23:00:00 16.9 7 Oeste 16 Oeste 0 -- -- 53
2019-10-03 22:00:00 18.6 10 Oeste 13 Oeste 0 -- -- 42
2019-10-03 21:00:00 20.1 3 Sudoeste 12 Oeste 0 -- -- 37
2019-10-03 20:00:00 22.9 9 Oeste 14 Sudoeste 0 -- -- 31
2019-10-03 19:00:00 26.1 9 Sudoeste 19 Oeste 0 -- -- 27
2019-10-03 18:00:00 26.6 13 Sudoeste 19 Sudoeste 0 -- -- 26
2019-10-03 17:00:00 26.3 12 Sudoeste 21 Sudoeste 0 -- -- 28
2019-10-03 16:00:00 24.5 12 Oeste 24 Oeste 0 -- -- 31
2019-10-03 15:00:00 23.3 16 Oeste 28 Sudoeste 0 -- -- 38
2019-10-03 14:00:00 22.4 10 Oeste 23 Oeste 0 -- -- 41
2019-10-03 13:00:00 19.1 10 Oeste 18 Sudoeste 0 -- -- 49
2019-10-03 12:00:00 16.7 6 Sur 11 Sudoeste 0 -- -- 56
2019-10-03 11:00:00 13.9 3 Sudoeste 6 Sudoeste 0 -- -- 66
2019-10-03 10:00:00 10.4 0 Calma 5 Norte 0 -- -- 77
2019-10-03 09:00:00 6.6 4 Nordeste 8 Norte 0 -- -- 87
2019-10-03 08:00:00 6.2 3 Norte 7 Noroeste 0 -- -- 86
2019-10-03 07:00:00 7.1 3 Oeste 6 Noroeste 0 -- -- 84
2019-10-03 06:00:00 8.2 3 Noroeste 6 Norte 0 -- -- 83
2019-10-03 05:00:00 9.4 5 Norte 8 Nordeste 0 -- -- 80
2019-10-03 04:00:00 9.8 6 Nordeste 11 Nordeste 0 -- -- 78
2019-10-03 03:00:00 10.8 11 Nordeste 14 Nordeste 0 -- -- 74
2019-10-03 02:00:00 11.2 8 Nordeste 18 Este 0 -- -- 70
2019-10-03 01:00:00 11.6 10 Nordeste 17 Nordeste 0 -- -- 66
2019-10-03 00:00:00 10.8 8 Nordeste 14 Norte 0 -- -- 59
2019-10-02 23:00:00 12.6 12 Norte 14 Nordeste 0 -- -- 55
2019-10-02 22:00:00 14.6 10 Norte 12 Norte 0 -- -- 49
2019-10-02 21:00:00 16.5 6 Nordeste 8 Norte 0 -- -- 44
2019-10-02 20:00:00 18.9 5 Norte 12 Norte 0 -- -- 39
2019-10-02 19:00:00 22.1 9 Norte 18 Noroeste 0 -- -- 34
2019-10-02 18:00:00 23.2 6 Noroeste 19 Norte 0 -- -- 32
2019-10-02 17:00:00 23.6 6 Este 15 Noroeste 0 -- -- 32
2019-10-02 16:00:00 22.3 11 Nordeste 19 Nordeste 0 -- -- 33
2019-10-02 15:00:00 21.4 7 Norte 22 Oeste 0 -- -- 36
2019-10-02 14:00:00 21.3 5 Sudeste 23 Nordeste 0 -- -- 38
2019-10-02 13:00:00 18.5 6 Norte 20 Noroeste 0 -- -- 46
2019-10-02 12:00:00 16.4 13 Noroeste 22 Noroeste 0 -- -- 53
2019-10-02 11:00:00 13.8 8 Oeste 17 Oeste 0 -- -- 65
2019-10-02 10:00:00 10.5 5 Sudoeste 11 Sudoeste 0 -- -- 86
2019-10-02 09:00:00 7.2 2 Sudeste 7 Sudoeste 0 -- -- 93
2019-10-02 08:00:00 7.1 4 Sudoeste 12 Oeste 0 -- -- 93
2019-10-02 07:00:00 7.6 9 Oeste 13 Oeste 0 -- -- 90
2019-10-02 06:00:00 8.6 10 Oeste 13 Oeste 0 -- -- 87
2019-10-02 05:00:00 8.9 10 Noroeste 15 Oeste 0 -- -- 86
2019-10-02 04:00:00 9.8 6 Oeste 18 Oeste 0 -- -- 82
2019-10-02 03:00:00 11.2 15 Oeste 29 Oeste 0 -- -- 77
2019-10-02 02:00:00 12.4 18 Oeste 27 Oeste 0 -- -- 74
2019-10-02 01:00:00 13.1 16 Oeste 22 Oeste 0 -- -- 72
2019-10-02 00:00:00 13.9 15 Oeste 23 Oeste 0 -- -- 68
2019-10-01 23:00:00 14.9 15 Oeste 22 Oeste 0 -- -- 61
2019-10-01 22:00:00 17.3 12 Oeste 26 Oeste 0 -- -- 53
2019-10-01 21:00:00 18.2 16 Oeste 29 Oeste 0 -- -- 48
2019-10-01 20:00:00 20.7 19 Oeste 39 Oeste 0 -- -- 42
2019-10-01 19:00:00 23.4 29 Oeste 39 Oeste 0 -- -- 37
2019-10-01 18:00:00 24.5 24 Oeste 40 Oeste 0 -- -- 35
2019-10-01 17:00:00 24.3 26 Oeste 40 Oeste 0 -- -- 37
2019-10-01 16:00:00 23.6 24 Oeste 42 Oeste 0 -- -- 43
2019-10-01 15:00:00 23 32 Oeste 49 Oeste 0 -- -- 46
2019-10-01 14:00:00 21.8 26 Oeste 44 Oeste 0 -- -- 53
2019-10-01 13:00:00 21.3 28 Oeste 42 Oeste 0 -- -- 55
2019-10-01 12:00:00 18.9 26 Oeste 39 Oeste 0 -- -- 64
2019-10-01 11:00:00 17.4 18 Oeste 30 Oeste 0 -- -- 68
2019-10-01 10:00:00 15.5 15 Oeste 28 Oeste 0 -- -- 81
2019-10-01 09:00:00 13.7 14 Oeste 24 Oeste 0 -- -- 91
2019-10-01 08:00:00 13.2 4 Oeste 13 Oeste 0 -- -- 91
2019-10-01 07:00:00 13.7 8 Sudoeste 13 Sudoeste 0 -- -- 87
2019-10-01 06:00:00 14.6 6 Sudoeste 11 Oeste 0 -- -- 82
2019-10-01 05:00:00 13.4 2 Sudeste 4 Sudeste 0 -- -- 73
2019-10-01 04:00:00 15 0 Calma 5 Oeste 0 -- -- 69
2019-10-01 03:00:00 15.1 3 Norte 8 Oeste 0 -- -- 66
2019-10-01 02:00:00 16.1 8 Oeste 13 Oeste 0 -- -- 61
2019-10-01 01:00:00 17.3 10 Oeste 19 Oeste 0 -- -- 56
2019-10-01 00:00:00 17.8 7 Oeste 11 Oeste 0 -- -- 54
2019-09-30 23:00:00 19.7 4 Sur 15 Sur 0 -- -- 49
2019-09-30 22:00:00 19.6 11 Noroeste 15 Oeste 0 -- -- 48
2019-09-30 21:00:00 21.9 12 Oeste 17 Oeste 0 -- -- 45
2019-09-30 20:00:00 25.5 14 Oeste 26 Oeste 0 -- -- 38
2019-09-30 19:00:00 28.5 16 Oeste 27 Oeste 0 -- -- 33
2019-09-30 18:00:00 29.6 15 Oeste 26 Oeste 0 -- -- 30
2019-09-30 17:00:00 29.1 12 Oeste 21 Sudoeste 0 -- -- 34
2019-09-30 16:00:00 27.8 9 Sudoeste 21 Oeste 0 -- -- 39
2019-09-30 15:00:00 26.6 10 Sudoeste 19 Sudoeste 0 -- -- 43
2019-09-30 14:00:00 26 8 Sur 16 Sur 0 -- -- 44
2019-09-30 13:00:00 23.9 8 Sur 17 Este 0 -- -- 52
2019-09-30 12:00:00 21.7 9 Sudeste 15 Sudeste 0 -- -- 56
2019-09-30 11:00:00 18.1 5 Este 13 Este 0 -- -- 66
2019-09-30 10:00:00 15.3 8 Este 10 Este 0 -- -- 72
2019-09-30 09:00:00 11.6 5 Este 9 Este 0 -- -- 87
2019-09-30 08:00:00 10.2 8 Nordeste 10 Nordeste 0 -- -- 89
2019-09-30 07:00:00 10.7 10 Norte 11 Norte 0 -- -- 90
2019-09-30 06:00:00 11.4 5 Nordeste 12 Norte 0 -- -- 84
2019-09-30 05:00:00 12.6 2 Este 5 Sudeste 0 -- -- 79
2019-09-30 04:00:00 13.6 0 Calma 4 Sudoeste 0 -- -- 74
2019-09-30 03:00:00 14.2 3 Sudoeste 6 Sudoeste 0 -- -- 72
2019-09-30 02:00:00 14.7 3 Oeste 6 Noroeste 0 -- -- 68
2019-09-30 01:00:00 15.8 8 Noroeste 13 Oeste 0 -- -- 64
2019-09-30 00:00:00 16.6 11 Noroeste 13 Oeste 0 -- -- 62
2019-09-29 23:00:00 17.8 5 Noroeste 13 Noroeste 0 -- -- 54
2019-09-29 22:00:00 18.6 10 Noroeste 19 Oeste 0 -- -- 49
2019-09-29 21:00:00 21.6 11 Oeste 21 Oeste 0 -- -- 39
2019-09-29 20:00:00 24.5 20 Oeste 34 Oeste 0 -- -- 32
2019-09-29 19:00:00 27.6 24 Oeste 37 Oeste 0 -- -- 27
2019-09-29 18:00:00 28.5 25 Sudoeste 35 Sudoeste 0 -- -- 27
2019-09-29 17:00:00 28.5 24 Sudoeste 33 Oeste 0 -- -- 27
2019-09-29 16:00:00 28.2 22 Sudoeste 34 Oeste 0 -- -- 27
2019-09-29 15:00:00 27.4 18 Oeste 35 Sudoeste 0 -- -- 28
2019-09-29 14:00:00 25.6 19 Sudoeste 29 Oeste 0 -- -- 30
2019-09-29 13:00:00 23.8 17 Sudoeste 26 Sudoeste 0 -- -- 26
2019-09-29 12:00:00 20.4 11 Sudoeste 18 Sudoeste 0 -- -- 42
2019-09-29 11:00:00 16.9 5 Oeste 10 Sudoeste 0 -- -- 50
2019-09-29 10:00:00 12.3 5 Nordeste 9 Este 0 -- -- 63
2019-09-29 09:00:00 10 8 Este 12 Este 0 -- -- 70
2019-09-29 08:00:00 8 5 Este 9 Norte 0 -- -- 72
2019-09-29 07:00:00 8 5 Nordeste 10 Nordeste 0 -- -- 69
2019-09-29 06:00:00 8.1 6 Nordeste 11 Nordeste 0 -- -- 71
2019-09-29 05:00:00 9.6 4 Nordeste 12 Sudeste 0 -- -- 65
2019-09-29 04:00:00 9.8 3 Este 12 Norte 0 -- -- 64
2019-09-29 03:00:00 10.9 9 Nordeste 12 Norte 0 -- -- 60
2019-09-29 02:00:00 11.6 9 Nordeste 12 Nordeste 0 -- -- 58
2019-09-29 01:00:00 11.5 7 Norte 12 Norte 0 -- -- 60
2019-09-29 00:00:00 13.5 5 Este 12 Nordeste 0 -- -- 53
2019-09-28 23:00:00 14.9 9 Nordeste 11 Nordeste 0 -- -- 48
2019-09-28 22:00:00 16.4 8 Nordeste 9 Nordeste 0 -- -- 41
2019-09-28 21:00:00 20.5 3 Este 4 Sudeste 0 -- -- 34
2019-09-28 20:00:00 26.5 2 Sudeste 8 Sur 0 -- -- 25
2019-09-28 19:00:00 27.9 4 Sur 14 Oeste 0 -- -- 22
2019-09-28 18:00:00 28 8 Oeste 18 Oeste 0 -- -- 16
2019-09-28 17:00:00 27.2 9 Sudoeste 19 Sur 0 -- -- 23
2019-09-28 16:00:00 26.5 7 Sur 15 Sudoeste 0 -- -- 27
2019-09-28 15:00:00 24.9 8 Sudoeste 16 Sudoeste 0 -- -- 35
2019-09-28 14:00:00 22.6 6 Sudoeste 23 Sur 0 -- -- 46
2019-09-28 13:00:00 21.7 5 Sur 10 Sur 0 -- -- 50
2019-09-28 12:00:00 19.2 5 Este 12 Sudeste 0 -- -- 57
2019-09-28 11:00:00 15.8 4 Nordeste 8 Nordeste 0 -- -- 69
2019-09-28 10:00:00 11.8 4 Nordeste 11 Nordeste 0 -- -- 82
2019-09-28 09:00:00 7.6 9 Nordeste 11 Nordeste 0 -- -- 90
2019-09-28 08:00:00 7.4 7 Nordeste 11 Norte 0 -- -- 91
2019-09-28 07:00:00 8 10 Nordeste 13 Norte 0 -- -- 89
2019-09-28 06:00:00 8.6 12 Norte 14 Nordeste 0 -- -- 88
2019-09-28 05:00:00 9 9 Nordeste 10 Nordeste 0 -- -- 86
2019-09-28 04:00:00 10 0 Calma 5 Sur 0 -- -- 80
2019-09-28 03:00:00 10.5 0 Calma 8 Norte 0 -- -- 82
2019-09-28 02:00:00 11.3 5 Nordeste 6 Nordeste 0 -- -- 79
2019-09-28 01:00:00 13.2 2 Noroeste 10 Norte 0 -- -- 76
2019-09-28 00:00:00 14.8 9 Noroeste 15 Noroeste 0 -- -- 69
2019-09-27 23:00:00 15.8 14 Noroeste 17 Noroeste 0 -- -- 67
2019-09-27 22:00:00 16.8 11 Noroeste 14 Noroeste 0 -- -- 64
2019-09-27 21:00:00 18.8 11 Oeste 30 Oeste 0 -- -- 59
2019-09-27 20:00:00 21.6 23 Oeste 34 Oeste 0 -- -- 52
2019-09-27 19:00:00 25.2 21 Oeste 37 Sudoeste 0 -- -- 41
2019-09-27 18:00:00 25.7 24 Oeste 42 Sudoeste 0 -- -- 39
2019-09-27 17:00:00 26.1 18 Oeste 35 Oeste 0 -- -- 37
2019-09-27 16:00:00 25.6 22 Oeste 35 Oeste 0 -- -- 36
2019-09-27 15:00:00 24.5 17 Sudoeste 29 Sudoeste 0 -- -- 37
2019-09-27 14:00:00 23.1 15 Sudoeste 22 Sudoeste 0 -- -- 41
2019-09-27 13:00:00 21.7 5 Sur 14 Oeste 0 -- -- 41
2019-09-27 12:00:00 18.4 6 Oeste 17 Oeste 0 -- -- 54
2019-09-27 11:00:00 15.4 11 Oeste 19 Oeste 0 -- -- 68
2019-09-27 10:00:00 12.2 3 Sur 6 Nordeste 0 -- -- 74
2019-09-27 09:00:00 7.5 6 Norte 9 Norte 0 -- -- 85
2019-09-27 08:00:00 7 9 Nordeste 13 Norte 0 -- -- 86
2019-09-27 07:00:00 7 5 Nordeste 10 Nordeste 0 -- -- 84
2019-09-27 06:00:00 8.5 0 Calma 4 Norte 0 -- -- 81
2019-09-27 05:00:00 10.2 0 Calma 5 Oeste 0 -- -- 79
2019-09-27 04:00:00 11.4 3 Sudoeste 7 Noroeste 0 -- -- 74
2019-09-27 03:00:00 12.5 4 Noroeste 8 Norte 0 -- -- 69
2019-09-27 02:00:00 13.8 3 Oeste 10 Oeste 0 -- -- 63
2019-09-27 01:00:00 14.8 11 Oeste 14 Oeste 0 -- -- 55
2019-09-27 00:00:00 16.4 12 Oeste 15 Oeste 0 -- -- 48
2019-09-26 23:00:00 16.5 7 Oeste 17 Oeste 0 -- -- 46
2019-09-26 22:00:00 18.2 13 Oeste 17 Oeste 0 -- -- 37
2019-09-26 21:00:00 19.8 12 Oeste 21 Oeste 0 -- -- 32
2019-09-26 20:00:00 23.8 15 Oeste 24 Sudoeste 0 -- -- 28
2019-09-26 19:00:00 26.9 16 Oeste 25 Sudoeste 0 -- -- 23
2019-09-26 18:00:00 27.4 17 Sudoeste 36 Oeste 0 -- -- 22
2019-09-26 17:00:00 27.1 16 Oeste 36 Sudoeste 0 -- -- 25
2019-09-26 16:00:00 26.1 21 Sudoeste 31 Sudoeste 0 -- -- 28
2019-09-26 15:00:00 25.5 11 Oeste 25 Sudoeste 0 -- -- 31
2019-09-26 14:00:00 23.6 9 Sudoeste 25 Sudoeste 0 -- -- 44
2019-09-26 13:00:00 21 12 Sudoeste 21 Sur 0 -- -- 55
2019-09-26 12:00:00 18.6 13 Sur 22 Sur 0 -- -- 63
2019-09-26 11:00:00 16.4 10 Sudoeste 17 Sudoeste 0 -- -- 71
2019-09-26 10:00:00 13.8 2 Sur 5 Este 0 -- -- 79
2019-09-26 09:00:00 10.5 4 Sudeste 9 Nordeste 0 -- -- 93
2019-09-26 08:00:00 8.7 6 Nordeste 8 Norte 0 -- -- 91
2019-09-26 07:00:00 9.9 0 Calma 4 Este 0 -- -- 90
2019-09-26 06:00:00 10.5 0 Calma 9 Oeste 0 -- -- 89
2019-09-26 05:00:00 11.5 3 Sudoeste 9 Sudoeste 0 -- -- 85
2019-09-26 04:00:00 12 4 Oeste 10 Oeste 0 -- -- 82
2019-09-26 03:00:00 13.2 7 Sudoeste 14 Oeste 0 -- -- 78
2019-09-26 02:00:00 13.2 7 Oeste 13 Oeste 0 -- -- 76
2019-09-26 01:00:00 14 5 Oeste 14 Sudoeste 0 -- -- 72
2019-09-26 00:00:00 14.1 5 Oeste 12 Oeste 0 -- -- 71
2019-09-25 23:00:00 15.6 9 Oeste 18 Oeste 0 -- -- 65
2019-09-25 22:00:00 17.1 15 Oeste 18 Oeste 0 -- -- 60
2019-09-25 21:00:00 18.2 11 Oeste 16 Oeste 0 -- -- 56
2019-09-25 20:00:00 20.6 9 Oeste 20 Sudoeste 0 -- -- 46
2019-09-25 19:00:00 22.2 13 Sudoeste 22 Oeste 0 -- -- 40
2019-09-25 18:00:00 23 13 Sudoeste 26 Sur 0 -- -- 39
2019-09-25 17:00:00 23 8 Sur 22 Sudoeste 0 -- -- 40
2019-09-25 16:00:00 22.7 5 Sur 23 Sudoeste 0 -- -- 41
2019-09-25 15:00:00 22.1 7 Sudoeste 22 Sudoeste 0 -- -- 42
2019-09-25 14:00:00 19.7 12 Sudoeste 23 Sudoeste 0 -- -- 45
2019-09-25 13:00:00 18.2 9 Sudoeste 17 Sudoeste 0 -- -- 51
2019-09-25 12:00:00 16.5 7 Sudoeste 16 Sudoeste 0 -- -- 56
2019-09-25 11:00:00 14.4 12 Oeste 18 Oeste 0 -- -- 70
2019-09-25 10:00:00 11.7 5 Oeste 10 Oeste 0 -- -- 84
2019-09-25 09:00:00 8.8 8 Oeste 10 Oeste 0 -- -- 93
2019-09-25 08:00:00 7.9 0 Calma 9 Oeste 0 -- -- 94
2019-09-25 07:00:00 8.9 0 Calma 12 Oeste 0 -- -- 93
2019-09-25 06:00:00 9.6 9 Oeste 14 Oeste 0 -- -- 92
2019-09-25 05:00:00 9.7 8 Oeste 13 Oeste 0 -- -- 91
2019-09-25 04:00:00 11.3 10 Oeste 17 Oeste 0 -- -- 87
2019-09-25 03:00:00 11.6 9 Oeste 17 Sudoeste 0 -- -- 86
2019-09-25 02:00:00 12.5 17 Sudoeste 22 Sudoeste 0 -- -- 81
2019-09-25 01:00:00 13.4 13 Oeste 23 Oeste 0 -- -- 75
2019-09-25 00:00:00 14.5 14 Oeste 25 Oeste 0 -- -- 70
2019-09-24 23:00:00 15.6 17 Oeste 26 Oeste 0 -- -- 67
2019-09-24 22:00:00 16.3 14 Oeste 26 Oeste 0 -- -- 64
2019-09-24 21:00:00 18.1 16 Oeste 40 Oeste 0 -- -- 60
2019-09-24 20:00:00 20.7 26 Oeste 49 Oeste 0 -- -- 54
2019-09-24 19:00:00 23.2 31 Oeste 49 Oeste 0 -- -- 51
2019-09-24 18:00:00 24.7 31 Sudoeste 56 Oeste 0 -- -- 45
2019-09-24 17:00:00 23.9 32 Oeste 51 Oeste 0 -- -- 49
2019-09-24 16:00:00 22.3 30 Oeste 48 Oeste 0 -- -- 58
2019-09-24 15:00:00 21.3 24 Oeste 41 Oeste 0 -- -- 64
2019-09-24 14:00:00 21.1 31 Oeste 45 Sudoeste 0 -- -- 64
2019-09-24 13:00:00 21 26 Sudoeste 38 Sudoeste 0 -- -- 65
2019-09-24 12:00:00 19.5 23 Sudoeste 39 Sudoeste 0 -- -- 70
2019-09-24 11:00:00 16.9 8 Sudoeste 13 Sudoeste 0 -- -- 75
2019-09-24 10:00:00 13.9 5 Sudeste 8 Este 0 -- -- 84
2019-09-24 09:00:00 12 4 Este 9 Sur 0 -- -- 90
2019-09-24 08:00:00 11.1 4 Sur 8 Sudoeste 0 -- -- 92
2019-09-24 07:00:00 11.4 4 Sur 12 Sur 0 -- -- 90
2019-09-24 06:00:00 11.4 5 Sur 10 Sudoeste 0 -- -- 88
2019-09-24 05:00:00 12 8 Sudoeste 13 Sudoeste 0 -- -- 85
2019-09-24 04:00:00 13.1 7 Sudoeste 10 Sudoeste 0 -- -- 79
2019-09-24 03:00:00 13.9 10 Oeste 15 Oeste 0 -- -- 74
2019-09-24 02:00:00 14.2 11 Sudoeste 16 Sudoeste 0 -- -- 73
2019-09-24 01:00:00 14.5 7 Sur 13 Sur 0 -- -- 69
2019-09-24 00:00:00 15.4 8 Sur 12 Sur 0 -- -- 65
2019-09-23 23:00:00 16.1 4 Sur 6 Sur 0 -- -- 62
2019-09-23 22:00:00 17.1 2 Oeste 5 Oeste 0 -- -- 57
2019-09-23 21:00:00 18.2 7 Oeste 19 Oeste 0 -- -- 53
2019-09-23 20:00:00 21.2 12 Oeste 28 Sudoeste 0 -- -- 45
2019-09-23 19:00:00 23.5 15 Oeste 25 Sudoeste 0 -- -- 39
2019-09-23 18:00:00 23.5 18 Sudoeste 28 Oeste 0 -- -- 38
2019-09-23 17:00:00 22.3 14 Sudoeste 26 Sudoeste 0 -- -- 40
2019-09-23 16:00:00 21.7 20 Sudoeste 28 Sudoeste 0 -- -- 40
2019-09-23 15:00:00 21.3 18 Sudoeste 36 Sudoeste 0 -- -- 42
2019-09-23 14:00:00 20.7 15 Sudoeste 31 Sudoeste 0 -- -- 47
2019-09-23 13:00:00 18.3 10 Sudoeste 20 Sudoeste 0 -- -- 60
2019-09-23 12:00:00 15.7 10 Sudoeste 17 Sudoeste 0 -- -- 70
2019-09-23 11:00:00 13.5 8 Sudoeste 12 Sudoeste 0 -- -- 82
2019-09-23 10:00:00 11.1 7 Sudeste 10 Sudeste 0 -- -- 90
2019-09-23 09:00:00 9.4 5 Sudeste 8 Sudeste 0 -- -- 95
2019-09-23 08:00:00 7.2 0 Calma 7 Norte 0 -- -- 95
2019-09-23 07:00:00 7.5 0 Calma 8 Nordeste 0 -- -- 95
2019-09-23 06:00:00 8.6 2 Sudeste 4 Sur 0 -- -- 92
2019-09-23 05:00:00 9.4 3 Sur 11 Sudeste 0 -- -- 90
2019-09-23 04:00:00 8.9 3 Norte 6 Oeste 0 -- -- 91
2019-09-23 03:00:00 10 4 Oeste 12 Oeste 0 -- -- 86
2019-09-23 02:00:00 9.9 6 Noroeste 8 Noroeste 0 -- -- 85
2019-09-23 01:00:00 11.1 4 Noroeste 10 Oeste 0 -- -- 79
2019-09-23 00:00:00 12.1 7 Oeste 10 Oeste 0 -- -- 74
2019-09-22 23:00:00 13.3 5 Oeste 9 Sudoeste 0 -- -- 68
2019-09-22 22:00:00 13.8 2 Oeste 11 Sudoeste 0 -- -- 65
2019-09-22 21:00:00 14.9 9 Sudoeste 17 Sudoeste 0 -- -- 61
2019-09-22 20:00:00 18.1 14 Oeste 34 Oeste 0 -- -- 47
2019-09-22 19:00:00 20.6 19 Oeste 36 Oeste 0 -- -- 39
2019-09-22 18:00:00 21.2 22 Oeste 38 Sudoeste 0 -- -- 43
2019-09-22 17:00:00 21.2 24 Sudoeste 36 Sudoeste 0 -- -- 42
2019-09-22 16:00:00 20.5 23 Oeste 31 Oeste 0 -- -- 48
2019-09-22 15:00:00 19 19 Oeste 32 Noroeste 0 -- -- 55
2019-09-22 14:00:00 17.9 23 Sudoeste 33 Sudoeste 0 -- -- 61
2019-09-22 13:00:00 17 15 Oeste 29 Oeste 0 -- -- 65
2019-09-22 12:00:00 15.7 18 Oeste 27 Oeste 0 -- -- 75
2019-09-22 11:00:00 14.9 17 Sudoeste 26 Sudoeste 0 -- -- 79
2019-09-22 10:00:00 13.4 11 Sudoeste 16 Sudoeste 0 -- -- 86
2019-09-22 09:00:00 11.3 6 Sur 9 Sudeste 0 -- -- 95
2019-09-22 08:00:00 10.6 5 Sudoeste 15 Sudoeste 0 -- -- 95
2019-09-22 07:00:00 11.1 14 Sudoeste 25 Sudoeste 0 -- -- 93
2019-09-22 06:00:00 12.1 17 Oeste 26 Oeste 0 -- -- 91
2019-09-22 05:00:00 12.3 17 Oeste 26 Sudoeste 0 -- -- 92
2019-09-22 04:00:00 12.6 15 Sudoeste 23 Sudoeste 0 -- -- 93
2019-09-22 03:00:00 12.4 17 Oeste 32 Oeste 0 -- -- 92
2019-09-22 02:00:00 12.3 26 Oeste 40 Oeste 1.4 -- -- 95
2019-09-22 01:00:00 15.8 13 Sudoeste 19 Sudoeste 1.6 -- -- 95
2019-09-22 00:00:00 16.1 12 Sudoeste 21 Sur 1 -- -- 92
2019-09-21 23:00:00 16.8 14 Sur 29 Sudoeste 0 -- -- 85
2019-09-21 22:00:00 16.7 17 Sur 33 Sur 0 -- -- 86
2019-09-21 21:00:00 16.7 14 Sur 25 Sur 0 -- -- 86
2019-09-21 20:00:00 16.8 17 Sur 38 Sur 0.4 -- -- 87
2019-09-21 19:00:00 18.1 22 Sur 36 Sur 0 -- -- 79
2019-09-21 18:00:00 18.7 25 Sur 49 Sur 0 -- -- 75
2019-09-21 17:00:00 20.5 27 Sur 40 Sur 0 -- -- 66
2019-09-21 16:00:00 19.5 24 Sur 32 Sur 0 -- -- 73
2019-09-21 15:00:00 16.8 14 Sur 26 Sur 0.6 -- -- 87
2019-09-21 14:00:00 16.9 15 Sur 24 Sur 0.2 -- -- 88
2019-09-21 13:00:00 15.9 14 Sur 32 Sur 1.2 -- -- 91
2019-09-21 12:00:00 16.5 19 Sudoeste 33 Sur 0.4 -- -- 82
2019-09-21 11:00:00 16.6 20 Sur 28 Sur 0 -- -- 81
2019-09-21 10:00:00 16.9 13 Sur 23 Sur 0 -- -- 74
2019-09-21 09:00:00 16 13 Sur 18 Sur 0 -- -- 77
2019-09-21 08:00:00 15.7 8 Sur 15 Sur 0 -- -- 76
2019-09-21 07:00:00 16 7 Sur 19 Sudoeste 0 -- -- 74
2019-09-21 06:00:00 16.6 10 Sudoeste 25 Sudoeste 0 -- -- 70
2019-09-21 05:00:00 17.3 14 Sudoeste 24 Sudoeste 0 -- -- 68
2019-09-21 04:00:00 17.7 10 Sudoeste 21 Sudoeste 0 -- -- 71
2019-09-21 03:00:00 17.5 7 Sur 11 Sur 0 -- -- 76
2019-09-21 02:00:00 17.5 6 Sur 12 Sudeste 0 -- -- 76
2019-09-21 01:00:00 17.4 6 Sudeste 13 Este 0 -- -- 79
2019-09-21 00:00:00 17.6 6 Sudeste 15 Sudeste 0.2 -- -- 77
2019-09-20 23:00:00 18.2 13 Sudeste 20 Sudeste 0 -- -- 73
2019-09-20 22:00:00 19.1 7 Sudeste 17 Sudoeste 0 -- -- 68
2019-09-20 21:00:00 19.8 8 Sur 38 Sur 0 -- -- 65
2019-09-20 20:00:00 20.9 8 Sur 28 Sudeste 0 -- -- 64
2019-09-20 19:00:00 22.3 23 Sudeste 43 Sur 0.2 -- -- 60
2019-09-20 18:00:00 27.7 15 Sur 31 Sudoeste 0 -- -- 33
2019-09-20 17:00:00 29.4 12 Sudoeste 31 Sudoeste 0 -- -- 31
2019-09-20 16:00:00 27.8 17 Sur 31 Sur 0 -- -- 33
2019-09-20 15:00:00 27.9 15 Sudoeste 28 Sudoeste 0 -- -- 35
2019-09-20 14:00:00 27.2 18 Sur 31 Sur 0 -- -- 36
2019-09-20 13:00:00 26 13 Sur 28 Sur 0 -- -- 43
2019-09-20 12:00:00 23.9 18 Sur 27 Sudeste 0 -- -- 53
2019-09-20 11:00:00 21.4 12 Sudeste 21 Sudeste 0 -- -- 63
2019-09-20 10:00:00 18.4 11 Este 20 Este 0 -- -- 73
2019-09-20 09:00:00 16.5 9 Este 20 Este 0 -- -- 78
2019-09-20 08:00:00 16 10 Este 17 Este 0 -- -- 77
2019-09-20 07:00:00 15.9 7 Nordeste 14 Este 0 -- -- 77
2019-09-20 06:00:00 15.6 5 Nordeste 10 Este 0 -- -- 78
2019-09-20 05:00:00 15.8 4 Nordeste 12 Nordeste 0 -- -- 76
2019-09-20 04:00:00 16.1 10 Nordeste 16 Nordeste 0 -- -- 76
2019-09-20 03:00:00 17.3 12 Nordeste 18 Nordeste 0 -- -- 71
2019-09-20 02:00:00 17.1 15 Nordeste 18 Norte 0 -- -- 69
2019-09-20 01:00:00 16.6 15 Nordeste 19 Nordeste 0 -- -- 66
2019-09-20 00:00:00 16.2 14 Nordeste 19 Nordeste 0 -- -- 64
2019-09-19 23:00:00 17.7 14 Nordeste 17 Norte 0 -- -- 58
2019-09-19 22:00:00 19.2 12 Norte 15 Norte 0 -- -- 52
2019-09-19 21:00:00 21.6 9 Norte 12 Norte 0 -- -- 46
2019-09-19 20:00:00 26 9 Este 19 Este 0 -- -- 35
2019-09-19 19:00:00 28.6 12 Este 18 Este 0 -- -- 32
2019-09-19 18:00:00 27.9 7 Norte 19 Nordeste 0 -- -- 36
2019-09-19 17:00:00 28.6 9 Este 15 Este 0 -- -- 34
2019-09-19 16:00:00 28.7 6 Este 20 Nordeste 0 -- -- 35
2019-09-19 15:00:00 26.7 12 Nordeste 23 Nordeste 0 -- -- 40
2019-09-19 14:00:00 25.7 11 Nordeste 19 Este 0 -- -- 47
2019-09-19 13:00:00 24.6 9 Sudeste 17 Este 0 -- -- 52
2019-09-19 12:00:00 21.9 5 Este 18 Nordeste 0 -- -- 64
2019-09-19 11:00:00 19.5 6 Este 11 Nordeste 0 -- -- 73
2019-09-19 10:00:00 16.4 7 Nordeste 10 Nordeste 0 -- -- 83
2019-09-19 09:00:00 14.5 8 Norte 10 Norte 0 -- -- 91
2019-09-19 08:00:00 12.9 3 Norte 6 Oeste 0 -- -- 94
2019-09-19 07:00:00 13.8 0 Calma 13 Nordeste 0 -- -- 93
2019-09-19 06:00:00 14.4 11 Nordeste 14 Nordeste 0 -- -- 89
2019-09-19 05:00:00 15.1 8 Nordeste 17 Nordeste 0 -- -- 87
2019-09-19 04:00:00 15.7 13 Nordeste 17 Nordeste 0 -- -- 86
2019-09-19 03:00:00 15.4 9 Nordeste 14 Este 0 -- -- 83
2019-09-19 02:00:00 15 10 Nordeste 17 Nordeste 0 -- -- 85
2019-09-19 01:00:00 15 11 Nordeste 17 Norte 0 -- -- 82
2019-09-19 00:00:00 16.7 11 Norte 14 Norte 0 -- -- 76
2019-09-18 23:00:00 16.9 9 Nordeste 10 Norte 0 -- -- 76
2019-09-18 22:00:00 18.7 9 Norte 13 Norte 0 -- -- 67
2019-09-18 21:00:00 20.7 9 Nordeste 12 Nordeste 0 -- -- 63
2019-09-18 20:00:00 25 5 Norte 12 Noroeste 0 -- -- 45
2019-09-18 19:00:00 26.3 8 Norte 32 Noroeste 0 -- -- 40
2019-09-18 18:00:00 25.6 4 Norte 15 Norte 0 -- -- 43
2019-09-18 17:00:00 26.8 8 Nordeste 19 Nordeste 0 -- -- 43
2019-09-18 16:00:00 27 7 Sur 19 Este 0 -- -- 43
2019-09-18 15:00:00 25.9 6 Este 18 Nordeste 0 -- -- 46
2019-09-18 14:00:00 23.3 7 Nordeste 15 Norte 0 -- -- 56
2019-09-18 13:00:00 22.4 4 Nordeste 12 Este 0 -- -- 57
2019-09-18 12:00:00 21 6 Sudeste 13 Sudeste 0 -- -- 66
2019-09-18 11:00:00 18.8 5 Este 13 Nordeste 0 -- -- 73
2019-09-18 10:00:00 16.5 8 Norte 12 Nordeste 0 -- -- 89
2019-09-18 09:00:00 13.3 4 Noroeste 12 Nordeste 0 -- -- 96
2019-09-18 08:00:00 12.1 9 Norte 15 Norte 0 -- -- 97
2019-09-18 07:00:00 11.9 3 Oeste 10 Nordeste 0 -- -- 95
2019-09-18 06:00:00 12.4 8 Nordeste 16 Norte 0 -- -- 96
2019-09-18 05:00:00 12.9 7 Norte 9 Norte 0 -- -- 93
2019-09-18 04:00:00 13.9 0 Calma 10 Sudeste 0 -- -- 92
2019-09-18 03:00:00 14.3 4 Este 22 Nordeste 0 -- -- 92
2019-09-18 02:00:00 14.9 15 Este 38 Este 0 -- -- 91
2019-09-18 01:00:00 15.9 11 Norte 16 Norte 0 -- -- 85
2019-09-18 00:00:00 15.5 13 Noroeste 15 Noroeste 1 -- -- 89
2019-09-17 23:00:00 15.6 14 Sur 34 Sudeste 0.6 -- -- 85
2019-09-17 22:00:00 18.4 21 Sur 54 Sudeste 0 -- -- 65
2019-09-17 21:00:00 21.6 14 Sudoeste 33 Oeste 0 -- -- 45
2019-09-15 18:00:00 -- -- -- -- -- -- -- -- --
2019-09-15 17:00:00 -- -- -- -- -- -- -- -- --
2019-09-15 16:00:00 20 23 Nordeste 32 Nordeste 0 -- -- 69
2019-09-15 15:00:00 21 22 Este 35 Este 0 -- -- 64
2019-09-15 14:00:00 22.4 20 Este 28 Nordeste 0 -- -- 62
2019-09-15 13:00:00 21.2 17 Nordeste 26 Nordeste 0 -- -- 66
2019-09-15 12:00:00 17.7 14 Nordeste 20 Norte 0.2 -- -- 79
2019-09-15 11:00:00 17.8 6 Nordeste 18 Norte 0 -- -- 76
2019-09-15 10:00:00 16.1 10 Nordeste 15 Nordeste 0.2 -- -- 88
2019-09-15 09:00:00 14.4 4 Norte 23 Este 7 -- -- 93
2019-09-15 08:00:00 -- 12 Este 18 Nordeste 0 -- -- --
2019-09-15 07:00:00 16.2 13 Norte 17 Nordeste 0 -- -- 73
2019-09-15 06:00:00 15.2 12 Nordeste 18 Nordeste 0 -- -- 82
2019-09-15 05:00:00 15 10 Nordeste 15 Norte 0 -- -- 87
2019-09-15 04:00:00 16 11 Norte 14 Norte 0 -- -- 84
2019-09-15 03:00:00 16.6 8 Nordeste 12 Norte 0 -- -- 81
2019-09-15 02:00:00 16 6 Norte 14 Nordeste 0 -- -- 82
2019-09-15 01:00:00 16.4 9 Este 21 Este 0 -- -- 79
2019-09-15 00:00:00 17.4 16 Este 28 Este 0 -- -- 74